DANKE EDDF-EDDH
Flight info
| Callsign | DANKE |
|---|---|
| Flight time | N/A |
| Altitude | 35000 |
| Route | MARUN6E/07C MARUN Y150 TOLGI DCT SAS/N0458F340 P605 NOLGO NOLGO3D |
| Aircraft | CL60/M-SBDE1E2E3FGHIJ1J4J5J7M3RWXYZ/LB1V1D1 |
Departure
| Time | 2026-05-01 12:28 |
|---|---|
| Airport | Frankfurt Main Airport (EDDF) |
Arrival
| Time | N/A |
|---|---|
| Airport | Hamburg Helmut Schmidt Airport (EDDH) |
| Time | Latitude | Longitude | Altitude | Speed | Heading |
|---|---|---|---|---|---|
| 2026-05-01 11:40 | 50.02944 | 8.55481 | 339 ft | 0 kts | 160° |
| 2026-05-01 12:13 | 50.02942 | 8.55483 | 339 ft | 3 kts | 159° |
| 2026-05-01 12:14 | 50.02925 | 8.55524 | 340 ft | 6 kts | 76° |
| 2026-05-01 12:14 | 50.02942 | 8.55592 | 340 ft | 7 kts | 70° |
| 2026-05-01 12:14 | 50.02974 | 8.55682 | 339 ft | 11 kts | 13° |
| 2026-05-01 12:14 | 50.03052 | 8.55630 | 337 ft | 2 kts | 338° |
| 2026-05-01 12:15 | 50.03072 | 8.55581 | 336 ft | 8 kts | 276° |
| 2026-05-01 12:15 | 50.03050 | 8.55453 | 337 ft | 15 kts | 249° |
| 2026-05-01 12:15 | 50.03005 | 8.55270 | 335 ft | 20 kts | 251° |
| 2026-05-01 12:15 | 50.02951 | 8.55042 | 333 ft | 24 kts | 251° |
| 2026-05-01 12:16 | 50.02888 | 8.54775 | 333 ft | 27 kts | 250° |
| 2026-05-01 12:16 | 50.02832 | 8.54543 | 335 ft | 12 kts | 251° |
| 2026-05-01 12:16 | 50.02798 | 8.54400 | 336 ft | 15 kts | 250° |
| 2026-05-01 12:16 | 50.02755 | 8.54217 | 334 ft | 20 kts | 249° |
| 2026-05-01 12:17 | 50.02698 | 8.53999 | 334 ft | 14 kts | 253° |
| 2026-05-01 12:17 | 50.02675 | 8.53892 | 334 ft | 12 kts | 251° |
| 2026-05-01 12:17 | 50.02642 | 8.53745 | 333 ft | 17 kts | 249° |
| 2026-05-01 12:17 | 50.02611 | 8.53568 | 332 ft | 12 kts | 287° |
| 2026-05-01 12:18 | 50.02655 | 8.53516 | 331 ft | 6 kts | 338° |
| 2026-05-01 12:18 | 50.02670 | 8.53507 | 331 ft | 0 kts | 338° |
| 2026-05-01 12:18 | 50.02671 | 8.53507 | 331 ft | 0 kts | 338° |
| 2026-05-01 12:25 | 50.02766 | 8.53466 | 329 ft | 10 kts | 53° |
| 2026-05-01 12:25 | 50.02774 | 8.53495 | 329 ft | 0 kts | 72° |
| 2026-05-01 12:26 | 50.02774 | 8.53496 | 329 ft | 0 kts | 72° |
| 2026-05-01 12:27 | 50.02783 | 8.53536 | 329 ft | 17 kts | 72° |
| 2026-05-01 12:27 | 50.03330 | 8.55788 | 862 ft | 170 kts | 72° |
| 2026-05-01 12:28 | 50.04292 | 8.59165 | 3209 ft | 183 kts | 71° |
| 2026-05-01 12:28 | 50.04740 | 8.61034 | 4238 ft | 201 kts | 73° |
| 2026-05-01 12:28 | 50.07061 | 8.63884 | 4971 ft | 251 kts | 5° |
| 2026-05-01 12:29 | 50.08883 | 8.63725 | 6139 ft | 270 kts | 358° |
| 2026-05-01 12:29 | 50.10654 | 8.63503 | 7952 ft | 261 kts | 359° |
| 2026-05-01 12:29 | 50.14483 | 8.63164 | 10316 ft | 294 kts | 0° |
| 2026-05-01 12:30 | 50.18602 | 8.62874 | 13079 ft | 307 kts | 1° |
| 2026-05-01 12:30 | 50.20715 | 8.62726 | 14456 ft | 310 kts | 1° |
| 2026-05-01 12:30 | 50.22859 | 8.62577 | 15749 ft | 315 kts | 0° |
| 2026-05-01 12:31 | 50.25034 | 8.62426 | 16978 ft | 320 kts | 0° |
| 2026-05-01 12:31 | 50.27253 | 8.62273 | 18154 ft | 325 kts | 0° |
| 2026-05-01 12:31 | 50.29504 | 8.62118 | 19275 ft | 329 kts | 0° |
| 2026-05-01 12:31 | 50.31789 | 8.61963 | 20356 ft | 334 kts | 0° |
| 2026-05-01 12:32 | 50.34106 | 8.61908 | 21419 ft | 337 kts | 2° |
| 2026-05-01 12:32 | 50.38817 | 8.61902 | 23461 ft | 345 kts | 2° |
| 2026-05-01 12:32 | 50.41226 | 8.61898 | 24410 ft | 350 kts | 2° |
| 2026-05-01 12:33 | 50.43662 | 8.61899 | 25334 ft | 355 kts | 2° |
| 2026-05-01 12:33 | 50.46120 | 8.62102 | 26209 ft | 358 kts | 6° |
| 2026-05-01 12:33 | 50.48609 | 8.62453 | 27056 ft | 362 kts | 6° |
| 2026-05-01 12:33 | 50.51142 | 8.62809 | 27863 ft | 365 kts | 6° |
| 2026-05-01 12:34 | 50.53728 | 8.63172 | 28628 ft | 370 kts | 6° |
| 2026-05-01 12:34 | 50.56336 | 8.63538 | 29348 ft | 374 kts | 6° |
| 2026-05-01 12:34 | 50.58950 | 8.63906 | 30058 ft | 377 kts | 6° |
| 2026-05-01 12:34 | 50.61578 | 8.64276 | 30712 ft | 381 kts | 6° |
| 2026-05-01 12:35 | 50.64234 | 8.64650 | 31291 ft | 385 kts | 6° |
| 2026-05-01 12:35 | 50.66903 | 8.65027 | 31837 ft | 389 kts | 6° |
| 2026-05-01 12:35 | 50.69617 | 8.65410 | 32358 ft | 392 kts | 6° |
| 2026-05-01 12:35 | 50.72346 | 8.65796 | 32842 ft | 396 kts | 5° |
| 2026-05-01 12:36 | 50.75088 | 8.66331 | 33295 ft | 400 kts | 11° |
| 2026-05-01 12:36 | 50.77781 | 8.67410 | 33729 ft | 403 kts | 18° |
| 2026-05-01 12:36 | 50.80394 | 8.69089 | 34142 ft | 407 kts | 26° |
| 2026-05-01 12:36 | 50.82846 | 8.71352 | 34649 ft | 408 kts | 34° |
| 2026-05-01 12:37 | 50.85065 | 8.74137 | 35199 ft | 409 kts | 42° |
| 2026-05-01 12:37 | 50.87038 | 8.77431 | 35326 ft | 420 kts | 50° |
| 2026-05-01 12:37 | 50.88835 | 8.81131 | 35316 ft | 431 kts | 52° |
| 2026-05-01 12:37 | 50.90662 | 8.84956 | 35319 ft | 441 kts | 52° |
| 2026-05-01 12:38 | 50.94412 | 8.92806 | 35326 ft | 452 kts | 52° |
| 2026-05-01 12:38 | 50.98188 | 9.00743 | 35335 ft | 452 kts | 52° |
| 2026-05-01 12:39 | 51.01959 | 9.08690 | 35339 ft | 452 kts | 52° |
| 2026-05-01 12:39 | 51.05734 | 9.16635 | 35344 ft | 452 kts | 51° |
| 2026-05-01 12:40 | 51.10162 | 9.23638 | 35350 ft | 450 kts | 37° |
| 2026-05-01 12:40 | 51.15509 | 9.28758 | 35353 ft | 449 kts | 24° |
| 2026-05-01 12:41 | 51.21430 | 9.31729 | 35347 ft | 448 kts | 12° |
| 2026-05-01 12:41 | 51.27509 | 9.33829 | 35352 ft | 448 kts | 12° |
| 2026-05-01 12:42 | 51.33583 | 9.35938 | 35353 ft | 448 kts | 12° |
| 2026-05-01 12:42 | 51.39660 | 9.38054 | 35349 ft | 448 kts | 12° |
| 2026-05-01 12:43 | 51.45741 | 9.40177 | 35353 ft | 449 kts | 12° |
| 2026-05-01 12:43 | 51.51843 | 9.42314 | 35358 ft | 449 kts | 12° |
| 2026-05-01 12:44 | 51.57937 | 9.44454 | 35346 ft | 449 kts | 12° |
| 2026-05-01 12:45 | 51.70147 | 9.48761 | 35344 ft | 449 kts | 12° |
| 2026-05-01 12:45 | 51.76232 | 9.50916 | 35343 ft | 449 kts | 12° |
| 2026-05-01 12:46 | 51.82290 | 9.53245 | 35338 ft | 449 kts | 18° |
| 2026-05-01 12:46 | 51.87961 | 9.57433 | 35339 ft | 444 kts | 26° |
| 2026-05-01 12:47 | 51.90665 | 9.59674 | 35007 ft | 434 kts | 26° |
| 2026-05-01 12:47 | 51.93337 | 9.61888 | 34221 ft | 435 kts | 27° |
| 2026-05-01 12:47 | 51.96021 | 9.64114 | 33268 ft | 438 kts | 27° |
| 2026-05-01 12:47 | 51.98719 | 9.66355 | 32486 ft | 437 kts | 28° |
| 2026-05-01 12:48 | 52.01395 | 9.68581 | 31837 ft | 432 kts | 28° |
| 2026-05-01 12:48 | 52.04036 | 9.70781 | 31222 ft | 426 kts | 28° |
| 2026-05-01 12:48 | 52.06645 | 9.72957 | 30599 ft | 421 kts | 28° |
| 2026-05-01 12:48 | 52.09226 | 9.75112 | 29943 ft | 417 kts | 28° |
| 2026-05-01 12:49 | 52.11785 | 9.77251 | 29274 ft | 413 kts | 28° |
| 2026-05-01 12:49 | 52.14319 | 9.79373 | 28606 ft | 409 kts | 28° |
| 2026-05-01 12:49 | 52.16827 | 9.81475 | 27946 ft | 406 kts | 28° |
| 2026-05-01 12:49 | 52.19311 | 9.83561 | 27289 ft | 402 kts | 28° |
| 2026-05-01 12:50 | 52.21768 | 9.85625 | 26654 ft | 398 kts | 28° |
| 2026-05-01 12:50 | 52.24217 | 9.87629 | 26002 ft | 395 kts | 25° |
| 2026-05-01 12:50 | 52.26838 | 9.88801 | 25505 ft | 389 kts | 10° |
| 2026-05-01 12:50 | 52.29507 | 9.89367 | 25356 ft | 388 kts | 9° |
| 2026-05-01 12:51 | 52.32190 | 9.89944 | 25348 ft | 391 kts | 9° |
| 2026-05-01 12:51 | 52.34895 | 9.90528 | 25349 ft | 395 kts | 9° |
| 2026-05-01 12:51 | 52.40604 | 9.91654 | 25539 ft | 431 kts | 6° |
| 2026-05-01 12:52 | 52.43637 | 9.92139 | 25872 ft | 443 kts | 8° |
| 2026-05-01 12:52 | 52.49920 | 9.93507 | 25521 ft | 447 kts | 10° |
| 2026-05-01 12:52 | 52.52935 | 9.94140 | 25776 ft | 431 kts | 9° |
| 2026-05-01 12:53 | 52.58891 | 9.95482 | 25387 ft | 428 kts | 9° |
| 2026-05-01 12:53 | 52.61826 | 9.96155 | 25352 ft | 426 kts | 9° |
| 2026-05-01 12:53 | 52.64757 | 9.96816 | 25331 ft | 425 kts | 9° |
| 2026-05-01 12:54 | 52.67682 | 9.97464 | 25346 ft | 426 kts | 8° |
| 2026-05-01 12:54 | 52.73561 | 9.98716 | 25291 ft | 429 kts | 9° |
| 2026-05-01 12:54 | 52.76496 | 9.99384 | 25236 ft | 420 kts | 9° |
| 2026-05-01 12:55 | 52.80624 | 10.00319 | 24623 ft | 403 kts | 9° |
| 2026-05-01 12:55 | 52.82699 | 10.00804 | 24272 ft | 395 kts | 9° |
| 2026-05-01 12:55 | 52.85410 | 10.01179 | 23674 ft | 391 kts | 2° |
| 2026-05-01 12:56 | 52.88116 | 10.00723 | 22673 ft | 396 kts | 350° |
| 2026-05-01 12:56 | 52.90790 | 9.99764 | 21917 ft | 393 kts | 349° |
| 2026-05-01 12:56 | 52.93434 | 9.98827 | 21201 ft | 389 kts | 349° |
| 2026-05-01 12:56 | 52.96055 | 9.97904 | 20580 ft | 389 kts | 349° |
| 2026-05-01 12:57 | 52.98730 | 9.96968 | 19953 ft | 397 kts | 349° |
| 2026-05-01 12:57 | 53.04144 | 9.95050 | 18743 ft | 395 kts | 347° |
| 2026-05-01 12:57 | 53.06810 | 9.94042 | 18346 ft | 394 kts | 349° |
| 2026-05-01 12:58 | 53.08958 | 9.93293 | 17906 ft | 392 kts | 350° |
| 2026-05-01 12:58 | 53.11598 | 9.92390 | 17209 ft | 387 kts | 350° |
| 2026-05-01 12:58 | 53.14212 | 9.91495 | 16353 ft | 386 kts | 350° |
| 2026-05-01 12:59 | 53.19420 | 9.89708 | 14768 ft | 380 kts | 350° |
| 2026-05-01 12:59 | 53.21975 | 9.88828 | 14212 ft | 371 kts | 350° |
| 2026-05-01 12:59 | 53.27035 | 9.87085 | 13170 ft | 374 kts | 350° |
| 2026-05-01 13:00 | 53.32083 | 9.85342 | 12121 ft | 369 kts | 350° |
| 2026-05-01 13:00 | 53.34585 | 9.84476 | 11603 ft | 367 kts | 349° |
| 2026-05-01 13:01 | 53.39537 | 9.82759 | 10546 ft | 362 kts | 349° |
| 2026-05-01 13:01 | 53.41992 | 9.81906 | 10032 ft | 360 kts | 349° |
| 2026-05-01 13:01 | 53.46841 | 9.80214 | 8984 ft | 350 kts | 349° |
| 2026-05-01 13:02 | 53.49182 | 9.79390 | 8476 ft | 340 kts | 349° |
| 2026-05-01 13:07 | 53.81450 | 9.80237 | 2981 ft | 220 kts | 125° |
| 2026-05-01 13:07 | 53.80588 | 9.82372 | 2972 ft | 220 kts | 125° |
| 2026-05-01 13:07 | 53.79700 | 9.84469 | 2976 ft | 220 kts | 133° |
| 2026-05-01 13:08 | 53.78475 | 9.86019 | 2839 ft | 224 kts | 150° |
| 2026-05-01 13:08 | 53.77118 | 9.87298 | 2557 ft | 223 kts | 151° |
| 2026-05-01 13:08 | 53.75765 | 9.88532 | 2277 ft | 220 kts | 152° |
| 2026-05-01 13:08 | 53.74415 | 9.89724 | 1991 ft | 219 kts | 152° |
| 2026-05-01 13:09 | 53.73084 | 9.90887 | 1691 ft | 208 kts | 152° |
| 2026-05-01 13:09 | 53.71869 | 9.91944 | 1460 ft | 185 kts | 152° |
| 2026-05-01 13:09 | 53.70807 | 9.92865 | 1262 ft | 160 kts | 152° |
| 2026-05-01 13:09 | 53.69867 | 9.93680 | 1055 ft | 145 kts | 152° |
| 2026-05-01 13:10 | 53.69000 | 9.94434 | 858 ft | 138 kts | 152° |
| 2026-05-01 13:10 | 53.68155 | 9.95166 | 650 ft | 136 kts | 152° |
| 2026-05-01 13:10 | 53.67346 | 9.95879 | 489 ft | 133 kts | 151° |
| 2026-05-01 13:10 | 53.66504 | 9.96604 | 333 ft | 134 kts | 152° |
| 2026-05-01 13:11 | 53.65689 | 9.97308 | 154 ft | 130 kts | 152° |
| 2026-05-01 13:11 | 53.64916 | 9.97975 | 52 ft | 116 kts | 152° |
| 2026-05-01 13:11 | 53.64441 | 9.98396 | 47 ft | 94 kts | 156° |
| 2026-05-01 13:11 | 53.63972 | 9.98862 | 37 ft | 50 kts | 125° |